createdAt,value
2022-08-17T00:01:26.228Z,88.98
2022-08-17T00:06:31.389Z,86.02
2022-08-17T00:11:39.854Z,83.20
2022-08-17T00:16:56.375Z,82.28
2022-08-17T00:22:31.235Z,81.12
2022-08-17T00:28:00.424Z,80.38
2022-08-17T00:33:14.952Z,79.55
2022-08-17T00:38:20.205Z,80.16
2022-08-17T00:43:34.182Z,80.48
2022-08-17T00:48:38.530Z,80.55
2022-08-17T00:53:44.777Z,80.45
2022-08-17T00:58:50.368Z,80.99
2022-08-17T01:03:58.025Z,81.77
2022-08-17T01:09:04.760Z,81.67
2022-08-17T01:14:09.843Z,81.44
2022-08-17T01:19:18.210Z,81.31
2022-08-17T01:24:30.580Z,81.86
2022-08-17T01:29:40.434Z,81.74
2022-08-17T01:34:50.556Z,81.56
2022-08-17T01:40:03.981Z,86.68
2022-08-17T01:45:11.963Z,85.10
2022-08-17T01:50:18.197Z,86.56
2022-08-17T01:55:29.638Z,84.99
2022-08-17T02:00:59.870Z,85.62
2022-08-17T02:05:58.967Z,86.97
2022-08-17T02:11:05.382Z,84.83
2022-08-17T02:16:15.435Z,85.14
2022-08-17T02:21:21.205Z,87.30
2022-08-17T02:26:26.413Z,86.45
2022-08-17T02:31:30.112Z,86.62
2022-08-17T02:36:35.492Z,89.70
2022-08-17T02:41:40.865Z,91.53
2022-08-17T02:46:44.007Z,90.55
2022-08-17T02:51:47.180Z,87.80
2022-08-17T02:56:51.388Z,91.90
2022-08-17T03:01:54.344Z,93.62
2022-08-17T03:06:57.829Z,89.71
2022-08-17T03:12:07.352Z,90.47
2022-08-17T03:17:17.478Z,89.29
2022-08-17T03:22:36.864Z,88.06
2022-08-17T03:27:45.315Z,92.99
2022-08-17T03:32:56.204Z,92.76
2022-08-17T03:38:00.049Z,90.20
2022-08-17T03:43:10.677Z,91.87
2022-08-17T03:48:34.223Z,90.26
2022-08-17T03:54:06.148Z,89.04
2022-08-17T03:59:20.996Z,88.69
2022-08-17T04:04:27.644Z,87.90
2022-08-17T04:09:31.043Z,88.00
2022-08-17T04:14:51.811Z,88.17
2022-08-17T04:19:58.041Z,89.71
2022-08-17T04:25:09.493Z,90.38
2022-08-17T04:30:14.490Z,92.83
2022-08-17T04:35:20.173Z,94.48
2022-08-17T04:40:42.616Z,91.13
2022-08-17T04:51:01.493Z,91.19
2022-08-17T04:56:04.757Z,93.11
2022-08-17T05:01:09.592Z,94.52
2022-08-17T05:06:12.587Z,94.59
2022-08-17T05:11:18.976Z,90.87
2022-08-17T05:16:24.475Z,90.23
2022-08-17T05:21:28.289Z,95.71
2022-08-17T05:26:31.000Z,96.43
2022-08-17T05:31:35.024Z,96.26
2022-08-17T05:36:43.150Z,97.90
2022-08-17T05:41:49.537Z,99.16
2022-08-17T05:46:54.387Z,98.00
2022-08-17T05:52:21.687Z,99.09
2022-08-17T05:57:36.960Z,95.16
2022-08-17T06:03:01.424Z,90.92
2022-08-17T06:08:13.379Z,87.93
2022-08-17T06:13:27.448Z,85.20
2022-08-17T06:18:39.719Z,83.41
2022-08-17T06:23:57.988Z,83.06
2022-08-17T06:29:28.534Z,81.10
2022-08-17T06:34:36.110Z,81.47
2022-08-17T06:39:49.595Z,80.15
2022-08-17T06:45:17.966Z,79.30
2022-08-17T06:50:30.823Z,79.48
2022-08-17T06:55:44.207Z,78.63
2022-08-17T07:00:49.556Z,78.63
2022-08-17T07:06:00.219Z,79.50
2022-08-17T07:11:06.539Z,79.42
2022-08-17T07:16:16.652Z,80.24
2022-08-17T07:21:37.104Z,80.55
2022-08-17T07:26:39.856Z,81.08
2022-08-17T07:31:42.508Z,81.58
2022-08-17T07:36:48.639Z,81.74
2022-08-17T07:41:57.442Z,82.27
2022-08-17T07:47:34.047Z,82.23
2022-08-17T07:52:50.573Z,82.82
2022-08-17T07:57:58.248Z,83.75
2022-08-17T08:03:12.462Z,84.04
2022-08-17T08:08:29.761Z,83.75
2022-08-17T08:13:33.249Z,85.80
2022-08-17T08:18:54.451Z,84.80
2022-08-17T08:24:26.337Z,85.57
2022-08-17T08:29:42.735Z,85.47
2022-08-17T08:35:02.681Z,87.15
2022-08-17T08:40:21.177Z,85.01
2022-08-17T08:45:30.599Z,83.88
2022-08-17T08:50:46.508Z,84.47
2022-08-17T08:55:55.812Z,83.87
2022-08-17T09:00:59.864Z,82.45
2022-08-17T09:06:37.833Z,80.67
2022-08-17T09:12:01.924Z,81.39
2022-08-17T09:17:13.801Z,82.42
2022-08-17T09:22:31.274Z,85.16
2022-08-17T09:27:47.541Z,84.13
2022-08-17T09:32:55.194Z,83.92
2022-08-17T09:38:04.326Z,84.41
2022-08-17T09:43:14.100Z,83.51
2022-08-17T09:48:22.413Z,83.25
2022-08-17T09:53:25.478Z,82.17
2022-08-17T09:58:42.284Z,82.21
2022-08-17T10:04:06.719Z,83.04
2022-08-17T10:09:20.459Z,82.42
2022-08-17T10:14:36.326Z,83.37
2022-08-17T10:19:48.069Z,84.95
2022-08-17T10:25:23.948Z,85.30
2022-08-17T10:30:34.101Z,87.07
2022-08-17T10:35:45.127Z,90.36
2022-08-17T10:40:55.081Z,91.89
2022-08-17T10:46:10.414Z,92.15
2022-08-17T10:51:38.812Z,93.39
2022-08-17T10:56:46.795Z,94.21
2022-08-17T11:02:13.829Z,93.74
2022-08-17T11:07:27.872Z,95.31
2022-08-17T11:12:42.385Z,96.34
2022-08-17T11:18:22.427Z,97.68
2022-08-17T11:23:50.927Z,99.44
2022-08-17T11:28:59.971Z,100.00
2022-08-17T11:34:10.108Z,100.00
2022-08-17T11:39:29.663Z,100.00
2022-08-17T11:44:47.725Z,100.00
2022-08-17T11:50:34.928Z,100.00
2022-08-17T11:56:03.494Z,100.00
2022-08-17T12:01:08.695Z,100.00
2022-08-17T12:06:41.136Z,100.00
2022-08-17T12:11:55.184Z,100.00
2022-08-17T12:17:22.438Z,100.00
2022-08-17T12:22:54.840Z,100.00
2022-08-17T12:28:05.946Z,100.00
2022-08-17T12:33:25.305Z,100.00
2022-08-17T12:38:36.001Z,100.00
2022-08-17T12:43:39.076Z,100.00
2022-08-17T12:48:59.157Z,100.00
2022-08-17T12:54:07.628Z,100.00
2022-08-17T12:59:12.188Z,100.00
2022-08-17T13:04:24.246Z,100.00
2022-08-17T13:09:40.164Z,100.00
2022-08-17T13:14:46.364Z,100.00
2022-08-17T13:19:50.971Z,100.00
2022-08-17T13:24:58.712Z,100.00
2022-08-17T13:30:08.430Z,100.00
2022-08-17T13:35:49.895Z,100.00
2022-08-17T13:41:09.450Z,100.00
2022-08-17T13:46:20.214Z,100.00
2022-08-17T13:51:29.511Z,100.00
2022-08-17T13:56:49.483Z,100.00
2022-08-17T14:01:54.122Z,100.00
2022-08-17T14:07:04.143Z,100.00
2022-08-17T14:12:12.670Z,100.00
2022-08-17T14:17:20.101Z,100.00
2022-08-17T14:22:32.464Z,100.00
2022-08-17T14:27:41.760Z,100.00
2022-08-17T14:32:56.524Z,100.00
2022-08-17T14:37:59.801Z,100.00
2022-08-17T14:43:03.946Z,100.00
2022-08-17T14:48:07.980Z,100.00
2022-08-17T14:53:15.274Z,100.00
2022-08-17T14:58:22.342Z,100.00
2022-08-17T15:03:25.210Z,100.00
2022-08-17T15:08:28.237Z,100.00
2022-08-17T15:13:33.019Z,100.00
2022-08-17T15:18:37.010Z,100.00
2022-08-17T15:23:40.292Z,100.00
2022-08-17T15:28:54.320Z,100.00
2022-08-17T15:33:59.396Z,100.00
2022-08-17T15:39:05.429Z,100.00
2022-08-17T15:44:09.799Z,100.00
2022-08-17T15:49:12.763Z,100.00
2022-08-17T15:54:23.431Z,100.00
2022-08-17T15:59:33.158Z,100.00
2022-08-17T16:04:36.039Z,100.00
2022-08-17T16:09:44.925Z,100.00
2022-08-17T16:14:51.631Z,100.00
2022-08-17T16:19:54.777Z,100.00
2022-08-17T16:24:59.907Z,100.00
2022-08-17T16:30:07.816Z,100.00
2022-08-17T16:35:16.091Z,100.00
2022-08-17T16:40:31.304Z,100.00
2022-08-17T16:46:03.059Z,100.00
2022-08-17T16:51:06.004Z,100.00
2022-08-17T16:56:08.806Z,100.00
2022-08-17T17:01:18.977Z,100.00
2022-08-17T17:06:35.074Z,100.00
2022-08-17T17:11:46.026Z,100.00
2022-08-17T17:17:00.935Z,100.00
2022-08-17T17:22:16.128Z,100.00
2022-08-17T17:27:32.447Z,100.00
2022-08-17T17:32:41.631Z,100.00
2022-08-17T17:37:46.489Z,100.00
2022-08-17T17:42:55.195Z,100.00
2022-08-17T17:47:59.623Z,100.00
2022-08-17T17:53:07.486Z,100.00
2022-08-17T17:58:22.519Z,100.00
2022-08-17T18:03:46.128Z,100.00
2022-08-17T18:09:11.292Z,100.00
2022-08-17T18:14:43.647Z,100.00
2022-08-17T18:19:49.880Z,100.00
2022-08-17T18:25:02.795Z,100.00
2022-08-17T18:30:28.875Z,100.00
2022-08-17T18:35:35.175Z,100.00
2022-08-17T18:40:38.891Z,100.00
2022-08-17T18:45:48.304Z,100.00
2022-08-17T18:50:54.004Z,100.00
2022-08-17T18:56:30.697Z,100.00
2022-08-17T19:01:53.250Z,100.00
2022-08-17T19:07:25.791Z,100.00
2022-08-17T19:12:40.594Z,100.00
2022-08-17T19:17:48.792Z,100.00
2022-08-17T19:23:06.059Z,100.00
2022-08-17T19:28:21.454Z,100.00
2022-08-17T19:33:26.761Z,100.00
2022-08-17T19:38:41.655Z,100.00
2022-08-17T19:44:07.682Z,100.00
2022-08-17T19:49:17.110Z,100.00
2022-08-17T19:54:26.970Z,100.00
2022-08-17T19:59:52.146Z,100.00
2022-08-17T20:05:00.989Z,100.00
2022-08-17T20:10:08.874Z,100.00
2022-08-17T20:15:17.775Z,100.00
2022-08-17T20:20:29.831Z,100.00
2022-08-17T20:25:43.808Z,100.00
2022-08-17T20:30:46.539Z,100.00
2022-08-17T20:36:04.710Z,100.00
2022-08-17T20:41:13.518Z,100.00
2022-08-17T20:46:52.027Z,100.00
2022-08-17T20:52:02.742Z,100.00
2022-08-17T20:57:14.121Z,100.00
2022-08-17T21:02:21.226Z,100.00
2022-08-17T21:07:30.017Z,100.00
2022-08-17T21:12:47.785Z,100.00
2022-08-17T21:18:02.044Z,100.00
2022-08-17T21:23:25.227Z,100.00
2022-08-17T21:29:01.070Z,100.00
2022-08-17T21:34:30.638Z,100.00
2022-08-17T21:39:41.673Z,100.00
2022-08-17T21:44:53.326Z,100.00
2022-08-17T21:50:14.262Z,100.00
2022-08-17T21:55:28.396Z,100.00
2022-08-17T22:00:46.310Z,100.00
2022-08-17T22:05:51.177Z,100.00
2022-08-17T22:11:08.178Z,100.00
2022-08-17T22:16:29.301Z,100.00
2022-08-17T22:21:46.246Z,100.00
2022-08-17T22:27:03.306Z,100.00
2022-08-17T22:32:07.717Z,100.00
2022-08-17T22:37:27.456Z,100.00
2022-08-17T22:42:32.330Z,100.00
2022-08-17T22:47:49.568Z,100.00
2022-08-17T22:53:33.325Z,100.00
2022-08-17T22:59:10.580Z,100.00
2022-08-17T23:04:43.157Z,100.00
2022-08-17T23:09:55.308Z,100.00
2022-08-17T23:15:01.510Z,100.00
2022-08-17T23:20:08.426Z,100.00
2022-08-17T23:25:16.268Z,100.00
2022-08-17T23:30:27.246Z,100.00
2022-08-17T23:35:39.845Z,100.00
2022-08-17T23:40:43.780Z,100.00
2022-08-17T23:45:48.585Z,100.00
2022-08-17T23:50:54.432Z,100.00
2022-08-17T23:56:09.339Z,100.00
